sensor_id;sensor_type;location;lat;lon;timestamp;P1;durP1;ratioP1;P2;durP2;ratioP2
77409;SDS011;66481;51.332;22.804;2023-08-01T00:01:25;11.27;;;8.10;;
77409;SDS011;66481;51.332;22.804;2023-08-01T00:05:26;13.23;;;9.95;;
77409;SDS011;66481;51.332;22.804;2023-08-01T00:09:27;10.85;;;8.40;;
77409;SDS011;66481;51.332;22.804;2023-08-01T00:13:29;11.65;;;8.07;;
77409;SDS011;66481;51.332;22.804;2023-08-01T00:17:30;11.65;;;7.95;;
77409;SDS011;66481;51.332;22.804;2023-08-01T00:21:31;12.60;;;7.28;;
77409;SDS011;66481;51.332;22.804;2023-08-01T00:25:33;10.98;;;8.00;;
77409;SDS011;66481;51.332;22.804;2023-08-01T00:29:34;9.57;;;7.72;;
77409;SDS011;66481;51.332;22.804;2023-08-01T00:33:35;12.20;;;7.25;;
77409;SDS011;66481;51.332;22.804;2023-08-01T00:37:37;10.98;;;7.68;;
77409;SDS011;66481;51.332;22.804;2023-08-01T00:41:38;13.68;;;6.38;;
77409;SDS011;66481;51.332;22.804;2023-08-01T00:45:39;11.43;;;6.97;;
77409;SDS011;66481;51.332;22.804;2023-08-01T00:49:39;12.20;;;6.63;;
77409;SDS011;66481;51.332;22.804;2023-08-01T00:53:41;8.75;;;6.32;;
77409;SDS011;66481;51.332;22.804;2023-08-01T00:57:42;9.30;;;6.13;;
77409;SDS011;66481;51.332;22.804;2023-08-01T01:01:44;9.07;;;6.22;;
77409;SDS011;66481;51.332;22.804;2023-08-01T01:06:05;9.10;;;7.22;;
77409;SDS011;66481;51.332;22.804;2023-08-01T01:10:11;11.60;;;7.40;;
77409;SDS011;66481;51.332;22.804;2023-08-01T01:14:12;9.75;;;7.00;;
77409;SDS011;66481;51.332;22.804;2023-08-01T01:18:13;9.20;;;6.47;;
77409;SDS011;66481;51.332;22.804;2023-08-01T01:22:14;12.63;;;6.38;;
77409;SDS011;66481;51.332;22.804;2023-08-01T01:26:17;9.50;;;6.25;;
77409;SDS011;66481;51.332;22.804;2023-08-01T01:30:21;7.65;;;5.63;;
77409;SDS011;66481;51.332;22.804;2023-08-01T01:34:23;11.57;;;6.35;;
77409;SDS011;66481;51.332;22.804;2023-08-01T01:38:24;8.98;;;6.15;;
77409;SDS011;66481;51.332;22.804;2023-08-01T01:42:26;8.65;;;6.07;;
77409;SDS011;66481;51.332;22.804;2023-08-01T01:46:27;9.85;;;6.07;;
77409;SDS011;66481;51.332;22.804;2023-08-01T01:50:30;8.43;;;5.53;;
77409;SDS011;66481;51.332;22.804;2023-08-01T01:54:31;9.13;;;6.10;;
77409;SDS011;66481;51.332;22.804;2023-08-01T01:58:32;9.55;;;6.18;;
77409;SDS011;66481;51.332;22.804;2023-08-01T02:02:33;9.63;;;6.07;;
77409;SDS011;66481;51.332;22.804;2023-08-01T02:06:34;7.60;;;5.95;;
77409;SDS011;66481;51.332;22.804;2023-08-01T02:10:34;9.45;;;5.63;;
77409;SDS011;66481;51.332;22.804;2023-08-01T02:14:36;10.70;;;5.90;;
77409;SDS011;66481;51.332;22.804;2023-08-01T02:18:37;10.23;;;5.88;;
77409;SDS011;66481;51.332;22.804;2023-08-01T02:22:38;7.07;;;5.95;;
77409;SDS011;66481;51.332;22.804;2023-08-01T02:26:39;7.45;;;6.60;;
77409;SDS011;66481;51.332;22.804;2023-08-01T02:30:39;6.70;;;6.00;;
77409;SDS011;66481;51.332;22.804;2023-08-01T02:34:40;9.70;;;6.03;;
77409;SDS011;66481;51.332;22.804;2023-08-01T02:38:41;6.93;;;5.88;;
77409;SDS011;66481;51.332;22.804;2023-08-01T02:42:42;9.35;;;6.35;;
77409;SDS011;66481;51.332;22.804;2023-08-01T02:46:43;9.18;;;6.18;;
77409;SDS011;66481;51.332;22.804;2023-08-01T02:50:45;14.25;;;6.40;;
77409;SDS011;66481;51.332;22.804;2023-08-01T02:54:46;7.38;;;5.68;;
77409;SDS011;66481;51.332;22.804;2023-08-01T02:58:47;11.05;;;5.57;;
77409;SDS011;66481;51.332;22.804;2023-08-01T03:02:49;8.27;;;5.85;;
77409;SDS011;66481;51.332;22.804;2023-08-01T03:06:50;10.40;;;6.50;;
77409;SDS011;66481;51.332;22.804;2023-08-01T03:10:53;10.68;;;6.40;;
77409;SDS011;66481;51.332;22.804;2023-08-01T03:14:54;8.68;;;5.85;;
77409;SDS011;66481;51.332;22.804;2023-08-01T03:18:55;11.57;;;6.65;;
77409;SDS011;66481;51.332;22.804;2023-08-01T03:22:56;7.18;;;6.30;;
77409;SDS011;66481;51.332;22.804;2023-08-01T03:26:57;8.45;;;6.15;;
77409;SDS011;66481;51.332;22.804;2023-08-01T03:30:58;11.27;;;6.55;;
77409;SDS011;66481;51.332;22.804;2023-08-01T03:34:59;12.88;;;6.90;;
77409;SDS011;66481;51.332;22.804;2023-08-01T03:39:00;8.88;;;6.50;;
77409;SDS011;66481;51.332;22.804;2023-08-01T03:43:01;9.52;;;6.18;;
77409;SDS011;66481;51.332;22.804;2023-08-01T03:47:02;8.45;;;5.38;;
77409;SDS011;66481;51.332;22.804;2023-08-01T03:51:03;7.80;;;5.60;;
77409;SDS011;66481;51.332;22.804;2023-08-01T03:55:04;6.75;;;5.55;;
77409;SDS011;66481;51.332;22.804;2023-08-01T03:59:08;9.77;;;5.93;;
77409;SDS011;66481;51.332;22.804;2023-08-01T04:07:09;6.35;;;5.05;;
77409;SDS011;66481;51.332;22.804;2023-08-01T04:11:10;8.27;;;6.72;;
77409;SDS011;66481;51.332;22.804;2023-08-01T04:15:11;7.28;;;5.95;;
77409;SDS011;66481;51.332;22.804;2023-08-01T04:19:12;9.63;;;5.03;;
77409;SDS011;66481;51.332;22.804;2023-08-01T04:23:13;9.13;;;4.82;;
77409;SDS011;66481;51.332;22.804;2023-08-01T04:27:14;9.27;;;4.50;;
77409;SDS011;66481;51.332;22.804;2023-08-01T04:31:15;6.18;;;4.63;;
77409;SDS011;66481;51.332;22.804;2023-08-01T04:35:16;9.18;;;5.13;;
77409;SDS011;66481;51.332;22.804;2023-08-01T04:39:17;9.05;;;5.40;;
77409;SDS011;66481;51.332;22.804;2023-08-01T04:43:18;5.78;;;4.30;;
77409;SDS011;66481;51.332;22.804;2023-08-01T04:47:19;6.78;;;4.90;;
77409;SDS011;66481;51.332;22.804;2023-08-01T04:51:20;4.95;;;4.45;;
77409;SDS011;66481;51.332;22.804;2023-08-01T04:55:21;8.32;;;4.38;;
77409;SDS011;66481;51.332;22.804;2023-08-01T04:59:22;7.65;;;4.38;;
77409;SDS011;66481;51.332;22.804;2023-08-01T05:03:23;6.50;;;3.78;;
77409;SDS011;66481;51.332;22.804;2023-08-01T05:07:24;5.57;;;3.88;;
77409;SDS011;66481;51.332;22.804;2023-08-01T05:11:27;6.97;;;4.13;;
77409;SDS011;66481;51.332;22.804;2023-08-01T05:15:29;7.40;;;4.82;;
77409;SDS011;66481;51.332;22.804;2023-08-01T05:19:31;9.05;;;4.95;;
77409;SDS011;66481;51.332;22.804;2023-08-01T05:23:32;8.32;;;4.45;;
77409;SDS011;66481;51.332;22.804;2023-08-01T05:27:33;5.68;;;4.80;;
77409;SDS011;66481;51.332;22.804;2023-08-01T05:31:34;5.85;;;4.00;;
77409;SDS011;66481;51.332;22.804;2023-08-01T05:35:35;6.03;;;4.05;;
77409;SDS011;66481;51.332;22.804;2023-08-01T05:39:37;9.00;;;4.15;;
77409;SDS011;66481;51.332;22.804;2023-08-01T05:43:41;6.97;;;3.97;;
77409;SDS011;66481;51.332;22.804;2023-08-01T05:47:42;5.97;;;3.28;;
77409;SDS011;66481;51.332;22.804;2023-08-01T05:51:43;5.07;;;3.85;;
77409;SDS011;66481;51.332;22.804;2023-08-01T05:55:44;4.43;;;3.60;;
77409;SDS011;66481;51.332;22.804;2023-08-01T05:59:45;4.75;;;3.30;;
77409;SDS011;66481;51.332;22.804;2023-08-01T06:03:46;4.00;;;3.40;;
77409;SDS011;66481;51.332;22.804;2023-08-01T06:07:47;6.78;;;4.00;;
77409;SDS011;66481;51.332;22.804;2023-08-01T06:11:48;5.00;;;3.53;;
77409;SDS011;66481;51.332;22.804;2023-08-01T06:15:49;3.30;;;3.00;;
77409;SDS011;66481;51.332;22.804;2023-08-01T06:19:50;4.15;;;3.17;;
77409;SDS011;66481;51.332;22.804;2023-08-01T06:23:52;5.35;;;3.50;;
77409;SDS011;66481;51.332;22.804;2023-08-01T06:27:53;6.50;;;3.35;;
77409;SDS011;66481;51.332;22.804;2023-08-01T06:31:55;5.78;;;3.95;;
77409;SDS011;66481;51.332;22.804;2023-08-01T06:35:56;6.20;;;3.22;;
77409;SDS011;66481;51.332;22.804;2023-08-01T06:39:57;5.10;;;2.50;;
77409;SDS011;66481;51.332;22.804;2023-08-01T06:47:59;4.90;;;3.33;;
77409;SDS011;66481;51.332;22.804;2023-08-01T06:52:01;5.45;;;2.67;;
77409;SDS011;66481;51.332;22.804;2023-08-01T06:56:02;6.28;;;2.80;;
77409;SDS011;66481;51.332;22.804;2023-08-01T07:00:03;5.38;;;3.20;;
77409;SDS011;66481;51.332;22.804;2023-08-01T07:04:05;3.47;;;2.75;;
77409;SDS011;66481;51.332;22.804;2023-08-01T07:08:06;5.32;;;2.35;;
77409;SDS011;66481;51.332;22.804;2023-08-01T07:12:07;4.00;;;2.85;;
77409;SDS011;66481;51.332;22.804;2023-08-01T07:16:08;3.47;;;2.78;;
77409;SDS011;66481;51.332;22.804;2023-08-01T07:20:10;3.67;;;2.55;;
77409;SDS011;66481;51.332;22.804;2023-08-01T07:24:11;4.18;;;3.15;;
77409;SDS011;66481;51.332;22.804;2023-08-01T07:28:15;5.25;;;2.55;;
77409;SDS011;66481;51.332;22.804;2023-08-01T07:32:16;3.70;;;2.53;;
77409;SDS011;66481;51.332;22.804;2023-08-01T07:36:17;5.95;;;3.38;;
77409;SDS011;66481;51.332;22.804;2023-08-01T07:40:18;4.75;;;2.85;;
77409;SDS011;66481;51.332;22.804;2023-08-01T07:44:19;4.00;;;2.67;;
77409;SDS011;66481;51.332;22.804;2023-08-01T07:48:20;3.25;;;2.53;;
77409;SDS011;66481;51.332;22.804;2023-08-01T07:52:21;3.03;;;2.80;;
77409;SDS011;66481;51.332;22.804;2023-08-01T07:56:22;3.30;;;2.58;;
77409;SDS011;66481;51.332;22.804;2023-08-01T08:00:23;3.67;;;2.70;;
77409;SDS011;66481;51.332;22.804;2023-08-01T08:04:25;4.15;;;3.00;;
77409;SDS011;66481;51.332;22.804;2023-08-01T08:08:26;3.13;;;2.63;;
77409;SDS011;66481;51.332;22.804;2023-08-01T08:12:28;3.22;;;2.92;;
77409;SDS011;66481;51.332;22.804;2023-08-01T08:16:29;7.07;;;3.45;;
77409;SDS011;66481;51.332;22.804;2023-08-01T08:20:31;4.88;;;3.10;;
77409;SDS011;66481;51.332;22.804;2023-08-01T08:24:32;4.88;;;3.15;;
77409;SDS011;66481;51.332;22.804;2023-08-01T08:28:36;3.58;;;2.58;;
77409;SDS011;66481;51.332;22.804;2023-08-01T08:32:37;4.10;;;3.25;;
77409;SDS011;66481;51.332;22.804;2023-08-01T08:36:38;3.25;;;2.70;;
77409;SDS011;66481;51.332;22.804;2023-08-01T08:40:40;5.75;;;2.97;;
77409;SDS011;66481;51.332;22.804;2023-08-01T08:44:44;4.32;;;3.10;;
77409;SDS011;66481;51.332;22.804;2023-08-01T08:48:49;4.80;;;3.15;;
77409;SDS011;66481;51.332;22.804;2023-08-01T08:52:51;4.35;;;2.80;;
77409;SDS011;66481;51.332;22.804;2023-08-01T08:56:53;5.80;;;2.67;;
77409;SDS011;66481;51.332;22.804;2023-08-01T09:00:56;5.00;;;2.55;;
77409;SDS011;66481;51.332;22.804;2023-08-01T09:04:58;5.45;;;2.50;;
77409;SDS011;66481;51.332;22.804;2023-08-01T09:09:03;3.85;;;2.63;;
77409;SDS011;66481;51.332;22.804;2023-08-01T09:13:09;5.40;;;2.38;;
77409;SDS011;66481;51.332;22.804;2023-08-01T09:17:10;4.25;;;2.42;;
77409;SDS011;66481;51.332;22.804;2023-08-01T09:21:12;2.92;;;2.63;;
77409;SDS011;66481;51.332;22.804;2023-08-01T09:25:13;2.80;;;2.58;;
77409;SDS011;66481;51.332;22.804;2023-08-01T09:29:17;3.45;;;2.75;;
77409;SDS011;66481;51.332;22.804;2023-08-01T09:33:19;3.00;;;2.45;;
77409;SDS011;66481;51.332;22.804;2023-08-01T09:37:20;3.22;;;2.90;;
77409;SDS011;66481;51.332;22.804;2023-08-01T09:41:21;3.63;;;3.00;;
77409;SDS011;66481;51.332;22.804;2023-08-01T09:45:22;4.28;;;3.63;;
77409;SDS011;66481;51.332;22.804;2023-08-01T09:49:24;4.18;;;3.50;;
77409;SDS011;66481;51.332;22.804;2023-08-01T09:57:29;4.30;;;2.70;;
77409;SDS011;66481;51.332;22.804;2023-08-01T10:01:31;3.28;;;2.97;;
77409;SDS011;66481;51.332;22.804;2023-08-01T10:05:34;3.88;;;3.30;;
77409;SDS011;66481;51.332;22.804;2023-08-01T10:09:40;3.90;;;3.40;;
77409;SDS011;66481;51.332;22.804;2023-08-01T10:13:42;7.45;;;3.70;;
77409;SDS011;66481;51.332;22.804;2023-08-01T10:17:44;4.65;;;2.80;;
77409;SDS011;66481;51.332;22.804;2023-08-01T10:21:45;4.55;;;3.70;;
77409;SDS011;66481;51.332;22.804;2023-08-01T10:25:48;3.40;;;3.10;;
77409;SDS011;66481;51.332;22.804;2023-08-01T10:29:59;3.50;;;3.17;;
77409;SDS011;66481;51.332;22.804;2023-08-01T10:34:06;3.92;;;3.00;;
77409;SDS011;66481;51.332;22.804;2023-08-01T10:38:14;3.35;;;3.05;;
77409;SDS011;66481;51.332;22.804;2023-08-01T10:42:15;7.60;;;3.28;;
77409;SDS011;66481;51.332;22.804;2023-08-01T10:46:17;6.22;;;3.40;;
77409;SDS011;66481;51.332;22.804;2023-08-01T10:50:18;4.55;;;3.55;;
77409;SDS011;66481;51.332;22.804;2023-08-01T10:54:23;3.45;;;3.15;;
77409;SDS011;66481;51.332;22.804;2023-08-01T10:58:26;7.40;;;3.38;;
77409;SDS011;66481;51.332;22.804;2023-08-01T11:02:28;5.60;;;3.50;;
77409;SDS011;66481;51.332;22.804;2023-08-01T11:06:30;5.47;;;2.92;;
77409;SDS011;66481;51.332;22.804;2023-08-01T11:10:32;4.07;;;3.20;;
77409;SDS011;66481;51.332;22.804;2023-08-01T11:14:33;3.25;;;2.95;;
77409;SDS011;66481;51.332;22.804;2023-08-01T11:18:43;3.95;;;2.97;;
77409;SDS011;66481;51.332;22.804;2023-08-01T11:22:52;3.95;;;3.33;;
77409;SDS011;66481;51.332;22.804;2023-08-01T11:27:05;7.13;;;3.08;;
77409;SDS011;66481;51.332;22.804;2023-08-01T11:31:13;4.05;;;3.40;;
77409;SDS011;66481;51.332;22.804;2023-08-01T11:35:17;4.95;;;3.03;;
77409;SDS011;66481;51.332;22.804;2023-08-01T11:39:19;7.97;;;3.35;;
77409;SDS011;66481;51.332;22.804;2023-08-01T11:43:23;8.55;;;3.00;;
77409;SDS011;66481;51.332;22.804;2023-08-01T11:47:24;6.15;;;3.58;;
77409;SDS011;66481;51.332;22.804;2023-08-01T11:51:25;6.47;;;3.40;;
77409;SDS011;66481;51.332;22.804;2023-08-01T11:55:27;4.72;;;3.55;;
77409;SDS011;66481;51.332;22.804;2023-08-01T11:59:28;6.82;;;2.95;;
77409;SDS011;66481;51.332;22.804;2023-08-01T12:03:28;5.43;;;3.45;;
77409;SDS011;66481;51.332;22.804;2023-08-01T12:07:30;3.95;;;3.55;;
77409;SDS011;66481;51.332;22.804;2023-08-01T12:11:31;5.55;;;3.47;;
77409;SDS011;66481;51.332;22.804;2023-08-01T12:15:31;3.72;;;2.92;;
77409;SDS011;66481;51.332;22.804;2023-08-01T12:19:33;4.38;;;3.30;;
77409;SDS011;66481;51.332;22.804;2023-08-01T12:23:37;5.93;;;3.60;;
77409;SDS011;66481;51.332;22.804;2023-08-01T12:27:37;6.55;;;3.38;;
77409;SDS011;66481;51.332;22.804;2023-08-01T12:31:38;5.28;;;3.60;;
77409;SDS011;66481;51.332;22.804;2023-08-01T12:35:40;6.13;;;3.58;;
77409;SDS011;66481;51.332;22.804;2023-08-01T12:39:41;5.65;;;3.00;;
77409;SDS011;66481;51.332;22.804;2023-08-01T12:43:42;6.43;;;3.72;;
77409;SDS011;66481;51.332;22.804;2023-08-01T12:47:43;5.63;;;3.08;;
77409;SDS011;66481;51.332;22.804;2023-08-01T12:51:45;4.55;;;3.45;;
77409;SDS011;66481;51.332;22.804;2023-08-01T12:55:47;4.72;;;3.10;;
77409;SDS011;66481;51.332;22.804;2023-08-01T13:03:49;5.40;;;3.17;;
77409;SDS011;66481;51.332;22.804;2023-08-01T13:07:51;5.20;;;2.83;;
77409;SDS011;66481;51.332;22.804;2023-08-01T13:11:52;3.70;;;3.22;;
77409;SDS011;66481;51.332;22.804;2023-08-01T13:15:55;5.68;;;3.67;;
77409;SDS011;66481;51.332;22.804;2023-08-01T13:20:00;4.65;;;3.10;;
77409;SDS011;66481;51.332;22.804;2023-08-01T13:24:02;3.50;;;2.60;;
77409;SDS011;66481;51.332;22.804;2023-08-01T13:28:05;4.28;;;3.03;;
77409;SDS011;66481;51.332;22.804;2023-08-01T13:32:07;3.85;;;3.13;;
77409;SDS011;66481;51.332;22.804;2023-08-01T13:36:08;6.28;;;3.10;;
77409;SDS011;66481;51.332;22.804;2023-08-01T13:40:10;5.97;;;2.92;;
77409;SDS011;66481;51.332;22.804;2023-08-01T13:44:14;4.75;;;3.40;;
77409;SDS011;66481;51.332;22.804;2023-08-01T13:48:15;4.32;;;3.13;;
77409;SDS011;66481;51.332;22.804;2023-08-01T13:52:17;3.95;;;3.33;;
77409;SDS011;66481;51.332;22.804;2023-08-01T13:56:18;3.95;;;2.92;;
77409;SDS011;66481;51.332;22.804;2023-08-01T14:00:19;5.22;;;2.83;;
77409;SDS011;66481;51.332;22.804;2023-08-01T14:04:20;6.15;;;3.60;;
77409;SDS011;66481;51.332;22.804;2023-08-01T14:08:22;7.28;;;3.90;;
77409;SDS011;66481;51.332;22.804;2023-08-01T14:12:23;5.68;;;3.10;;
77409;SDS011;66481;51.332;22.804;2023-08-01T14:16:25;3.65;;;2.90;;
77409;SDS011;66481;51.332;22.804;2023-08-01T14:20:26;4.43;;;2.75;;
77409;SDS011;66481;51.332;22.804;2023-08-01T14:24:27;3.95;;;2.95;;
77409;SDS011;66481;51.332;22.804;2023-08-01T14:28:28;4.65;;;3.15;;
77409;SDS011;66481;51.332;22.804;2023-08-01T14:32:29;4.07;;;3.00;;
77409;SDS011;66481;51.332;22.804;2023-08-01T14:36:30;5.60;;;2.50;;
77409;SDS011;66481;51.332;22.804;2023-08-01T14:40:32;4.45;;;3.25;;
77409;SDS011;66481;51.332;22.804;2023-08-01T14:44:36;4.65;;;3.25;;
77409;SDS011;66481;51.332;22.804;2023-08-01T14:48:37;4.20;;;3.28;;
77409;SDS011;66481;51.332;22.804;2023-08-01T14:52:38;6.55;;;3.63;;
77409;SDS011;66481;51.332;22.804;2023-08-01T14:56:40;4.57;;;3.28;;
77409;SDS011;66481;51.332;22.804;2023-08-01T15:00:41;4.75;;;3.00;;
77409;SDS011;66481;51.332;22.804;2023-08-01T15:04:42;6.88;;;3.35;;
77409;SDS011;66481;51.332;22.804;2023-08-01T15:08:43;5.28;;;2.97;;
77409;SDS011;66481;51.332;22.804;2023-08-01T15:12:47;4.22;;;3.72;;
77409;SDS011;66481;51.332;22.804;2023-08-01T15:16:48;3.42;;;2.80;;
77409;SDS011;66481;51.332;22.804;2023-08-01T15:24:51;6.55;;;3.72;;
77409;SDS011;66481;51.332;22.804;2023-08-01T15:28:52;5.45;;;3.17;;
77409;SDS011;66481;51.332;22.804;2023-08-01T15:32:53;3.55;;;3.05;;
77409;SDS011;66481;51.332;22.804;2023-08-01T15:36:55;5.10;;;3.20;;
77409;SDS011;66481;51.332;22.804;2023-08-01T15:40:56;9.80;;;3.92;;
77409;SDS011;66481;51.332;22.804;2023-08-01T15:44:57;11.90;;;5.78;;
77409;SDS011;66481;51.332;22.804;2023-08-01T15:48:59;10.93;;;5.57;;
77409;SDS011;66481;51.332;22.804;2023-08-01T15:53:02;8.35;;;4.05;;
77409;SDS011;66481;51.332;22.804;2023-08-01T15:57:04;5.00;;;3.40;;
77409;SDS011;66481;51.332;22.804;2023-08-01T16:01:05;5.55;;;4.38;;
77409;SDS011;66481;51.332;22.804;2023-08-01T16:05:08;4.97;;;3.33;;
77409;SDS011;66481;51.332;22.804;2023-08-01T16:09:10;5.93;;;3.55;;
77409;SDS011;66481;51.332;22.804;2023-08-01T16:13:12;4.15;;;3.33;;
77409;SDS011;66481;51.332;22.804;2023-08-01T16:17:12;4.40;;;3.58;;
77409;SDS011;66481;51.332;22.804;2023-08-01T16:21:13;3.90;;;3.33;;
77409;SDS011;66481;51.332;22.804;2023-08-01T16:25:14;6.05;;;3.42;;
77409;SDS011;66481;51.332;22.804;2023-08-01T16:29:15;4.40;;;3.45;;
77409;SDS011;66481;51.332;22.804;2023-08-01T16:33:17;6.53;;;3.28;;
77409;SDS011;66481;51.332;22.804;2023-08-01T16:37:18;8.27;;;4.22;;
77409;SDS011;66481;51.332;22.804;2023-08-01T16:41:19;6.57;;;4.55;;
77409;SDS011;66481;51.332;22.804;2023-08-01T16:45:22;9.40;;;4.20;;
77409;SDS011;66481;51.332;22.804;2023-08-01T16:49:25;5.80;;;4.05;;
77409;SDS011;66481;51.332;22.804;2023-08-01T16:53:27;7.05;;;4.30;;
77409;SDS011;66481;51.332;22.804;2023-08-01T16:57:28;6.60;;;4.00;;
77409;SDS011;66481;51.332;22.804;2023-08-01T17:01:29;4.85;;;4.13;;
77409;SDS011;66481;51.332;22.804;2023-08-01T17:05:31;5.82;;;3.80;;
77409;SDS011;66481;51.332;22.804;2023-08-01T17:09:33;4.82;;;3.25;;
77409;SDS011;66481;51.332;22.804;2023-08-01T17:13:34;4.78;;;3.60;;
77409;SDS011;66481;51.332;22.804;2023-08-01T17:17:36;5.25;;;3.17;;
77409;SDS011;66481;51.332;22.804;2023-08-01T17:21:37;7.22;;;4.70;;
77409;SDS011;66481;51.332;22.804;2023-08-01T17:25:38;5.50;;;3.85;;
77409;SDS011;66481;51.332;22.804;2023-08-01T17:29:39;7.25;;;5.05;;
77409;SDS011;66481;51.332;22.804;2023-08-01T17:33:40;5.85;;;4.28;;
77409;SDS011;66481;51.332;22.804;2023-08-01T17:37:43;5.03;;;4.00;;
77409;SDS011;66481;51.332;22.804;2023-08-01T17:41:45;5.90;;;4.55;;
77409;SDS011;66481;51.332;22.804;2023-08-01T17:45:46;5.85;;;4.57;;
77409;SDS011;66481;51.332;22.804;2023-08-01T17:49:48;6.70;;;4.45;;
77409;SDS011;66481;51.332;22.804;2023-08-01T17:53:50;6.78;;;4.30;;
77409;SDS011;66481;51.332;22.804;2023-08-01T17:57:51;4.93;;;3.72;;
77409;SDS011;66481;51.332;22.804;2023-08-01T18:01:53;4.47;;;3.72;;
77409;SDS011;66481;51.332;22.804;2023-08-01T18:06:04;6.32;;;3.90;;
77409;SDS011;66481;51.332;22.804;2023-08-01T18:10:14;4.80;;;3.53;;
77409;SDS011;66481;51.332;22.804;2023-08-01T18:14:16;6.15;;;3.58;;
77409;SDS011;66481;51.332;22.804;2023-08-01T18:18:18;5.10;;;3.42;;
77409;SDS011;66481;51.332;22.804;2023-08-01T18:22:20;6.78;;;4.35;;
77409;SDS011;66481;51.332;22.804;2023-08-01T18:26:23;4.63;;;3.45;;
77409;SDS011;66481;51.332;22.804;2023-08-01T18:30:26;6.57;;;3.97;;
77409;SDS011;66481;51.332;22.804;2023-08-01T18:34:33;8.38;;;4.75;;
77409;SDS011;66481;51.332;22.804;2023-08-01T18:38:35;6.03;;;4.22;;
77409;SDS011;66481;51.332;22.804;2023-08-01T18:42:36;6.25;;;3.85;;
77409;SDS011;66481;51.332;22.804;2023-08-01T18:46:37;4.35;;;3.13;;
77409;SDS011;66481;51.332;22.804;2023-08-01T18:50:41;3.50;;;3.17;;
77409;SDS011;66481;51.332;22.804;2023-08-01T18:54:41;5.18;;;3.65;;
77409;SDS011;66481;51.332;22.804;2023-08-01T18:58:43;3.72;;;2.90;;
77409;SDS011;66481;51.332;22.804;2023-08-01T19:02:44;4.10;;;3.17;;
77409;SDS011;66481;51.332;22.804;2023-08-01T19:06:45;3.72;;;2.33;;
77409;SDS011;66481;51.332;22.804;2023-08-01T19:10:47;3.25;;;2.42;;
77409;SDS011;66481;51.332;22.804;2023-08-01T19:14:48;2.83;;;2.00;;
77409;SDS011;66481;51.332;22.804;2023-08-01T19:18:50;2.97;;;1.85;;
77409;SDS011;66481;51.332;22.804;2023-08-01T19:22:51;2.75;;;1.90;;
77409;SDS011;66481;51.332;22.804;2023-08-01T19:26:52;2.90;;;1.90;;
77409;SDS011;66481;51.332;22.804;2023-08-01T19:30:54;4.65;;;1.95;;
77409;SDS011;66481;51.332;22.804;2023-08-01T19:34:55;2.65;;;1.90;;
77409;SDS011;66481;51.332;22.804;2023-08-01T19:38:58;3.03;;;1.77;;
77409;SDS011;66481;51.332;22.804;2023-08-01T19:42:59;2.67;;;1.58;;
77409;SDS011;66481;51.332;22.804;2023-08-01T19:47:01;3.40;;;1.90;;
77409;SDS011;66481;51.332;22.804;2023-08-01T19:51:02;3.05;;;2.08;;
77409;SDS011;66481;51.332;22.804;2023-08-01T19:55:04;2.60;;;1.63;;
77409;SDS011;66481;51.332;22.804;2023-08-01T19:59:06;2.28;;;1.63;;
77409;SDS011;66481;51.332;22.804;2023-08-01T20:03:07;2.83;;;1.90;;
77409;SDS011;66481;51.332;22.804;2023-08-01T20:07:08;2.75;;;1.90;;
77409;SDS011;66481;51.332;22.804;2023-08-01T20:11:10;2.63;;;1.92;;
77409;SDS011;66481;51.332;22.804;2023-08-01T20:15:11;2.88;;;1.35;;
77409;SDS011;66481;51.332;22.804;2023-08-01T20:19:12;3.20;;;2.25;;
77409;SDS011;66481;51.332;22.804;2023-08-01T20:23:14;2.78;;;1.25;;
77409;SDS011;66481;51.332;22.804;2023-08-01T20:27:16;3.08;;;1.60;;
77409;SDS011;66481;51.332;22.804;2023-08-01T20:31:18;3.70;;;1.25;;
77409;SDS011;66481;51.332;22.804;2023-08-01T20:35:19;2.13;;;1.15;;
77409;SDS011;66481;51.332;22.804;2023-08-01T20:39:21;2.15;;;1.30;;
77409;SDS011;66481;51.332;22.804;2023-08-01T20:43:27;3.40;;;1.88;;
77409;SDS011;66481;51.332;22.804;2023-08-01T20:47:29;2.70;;;1.70;;
77409;SDS011;66481;51.332;22.804;2023-08-01T20:51:32;2.22;;;1.35;;
77409;SDS011;66481;51.332;22.804;2023-08-01T20:55:33;2.85;;;1.95;;
77409;SDS011;66481;51.332;22.804;2023-08-01T20:59:35;4.40;;;1.48;;
77409;SDS011;66481;51.332;22.804;2023-08-01T21:03:36;3.97;;;1.50;;
77409;SDS011;66481;51.332;22.804;2023-08-01T21:07:37;3.15;;;2.42;;
77409;SDS011;66481;51.332;22.804;2023-08-01T21:11:38;3.78;;;1.90;;
77409;SDS011;66481;51.332;22.804;2023-08-01T21:15:39;3.85;;;1.85;;
77409;SDS011;66481;51.332;22.804;2023-08-01T21:19:41;2.85;;;1.50;;
77409;SDS011;66481;51.332;22.804;2023-08-01T21:23:42;2.88;;;1.92;;
77409;SDS011;66481;51.332;22.804;2023-08-01T21:27:44;4.70;;;1.90;;
77409;SDS011;66481;51.332;22.804;2023-08-01T21:31:46;2.03;;;1.65;;
77409;SDS011;66481;51.332;22.804;2023-08-01T21:35:49;4.20;;;2.13;;
77409;SDS011;66481;51.332;22.804;2023-08-01T21:39:50;3.05;;;1.75;;
77409;SDS011;66481;51.332;22.804;2023-08-01T21:43:52;2.58;;;1.83;;
77409;SDS011;66481;51.332;22.804;2023-08-01T21:47:53;4.13;;;2.10;;
77409;SDS011;66481;51.332;22.804;2023-08-01T21:51:56;3.58;;;1.83;;
77409;SDS011;66481;51.332;22.804;2023-08-01T21:55:57;4.00;;;2.30;;
77409;SDS011;66481;51.332;22.804;2023-08-01T21:59:59;4.85;;;2.03;;
77409;SDS011;66481;51.332;22.804;2023-08-01T22:04:00;3.45;;;1.83;;
77409;SDS011;66481;51.332;22.804;2023-08-01T22:08:01;3.55;;;2.40;;
77409;SDS011;66481;51.332;22.804;2023-08-01T22:12:04;3.13;;;2.05;;
77409;SDS011;66481;51.332;22.804;2023-08-01T22:16:05;3.40;;;2.03;;
77409;SDS011;66481;51.332;22.804;2023-08-01T22:20:07;4.90;;;2.25;;
77409;SDS011;66481;51.332;22.804;2023-08-01T22:24:11;2.95;;;2.03;;
77409;SDS011;66481;51.332;22.804;2023-08-01T22:28:13;6.63;;;2.63;;
77409;SDS011;66481;51.332;22.804;2023-08-01T22:32:17;5.13;;;2.83;;
77409;SDS011;66481;51.332;22.804;2023-08-01T22:36:18;5.05;;;2.42;;
77409;SDS011;66481;51.332;22.804;2023-08-01T22:40:20;6.82;;;2.92;;
77409;SDS011;66481;51.332;22.804;2023-08-01T22:44:21;4.60;;;3.08;;
77409;SDS011;66481;51.332;22.804;2023-08-01T22:48:23;5.03;;;3.25;;
77409;SDS011;66481;51.332;22.804;2023-08-01T22:52:24;4.90;;;2.30;;
77409;SDS011;66481;51.332;22.804;2023-08-01T22:56:25;3.08;;;2.17;;
77409;SDS011;66481;51.332;22.804;2023-08-01T23:00:26;4.57;;;2.42;;
77409;SDS011;66481;51.332;22.804;2023-08-01T23:04:28;3.90;;;2.03;;
77409;SDS011;66481;51.332;22.804;2023-08-01T23:08:29;4.22;;;2.08;;
77409;SDS011;66481;51.332;22.804;2023-08-01T23:12:31;3.35;;;2.45;;
77409;SDS011;66481;51.332;22.804;2023-08-01T23:16:32;3.75;;;2.15;;
77409;SDS011;66481;51.332;22.804;2023-08-01T23:20:34;3.17;;;1.83;;
77409;SDS011;66481;51.332;22.804;2023-08-01T23:24:36;4.03;;;2.20;;
77409;SDS011;66481;51.332;22.804;2023-08-01T23:28:38;3.80;;;2.58;;
77409;SDS011;66481;51.332;22.804;2023-08-01T23:32:39;3.15;;;1.58;;
77409;SDS011;66481;51.332;22.804;2023-08-01T23:36:40;4.07;;;1.83;;
77409;SDS011;66481;51.332;22.804;2023-08-01T23:40:40;3.92;;;2.30;;
77409;SDS011;66481;51.332;22.804;2023-08-01T23:44:42;3.95;;;2.80;;
77409;SDS011;66481;51.332;22.804;2023-08-01T23:48:43;4.00;;;2.45;;
77409;SDS011;66481;51.332;22.804;2023-08-01T23:52:44;3.25;;;2.08;;
77409;SDS011;66481;51.332;22.804;2023-08-01T23:56:44;3.38;;;2.00;;
